sensor_id;sensor_type;location;lat;lon;timestamp;P1;durP1;ratioP1;P2;durP2;ratioP2
4839;SDS011;2434;48.486;7.964;2024-03-06T00:01:45;6.50;;;2.27;;
4839;SDS011;2434;48.486;7.964;2024-03-06T00:04:14;3.80;;;2.07;;
4839;SDS011;2434;48.486;7.964;2024-03-06T00:06:46;10.47;;;2.80;;
4839;SDS011;2434;48.486;7.964;2024-03-06T00:09:14;10.60;;;4.80;;
4839;SDS011;2434;48.486;7.964;2024-03-06T00:11:42;9.00;;;5.10;;
4839;SDS011;2434;48.486;7.964;2024-03-06T00:14:10;15.70;;;5.60;;
4839;SDS011;2434;48.486;7.964;2024-03-06T00:16:39;11.30;;;5.27;;
4839;SDS011;2434;48.486;7.964;2024-03-06T00:19:07;12.10;;;5.87;;
4839;SDS011;2434;48.486;7.964;2024-03-06T00:21:35;7.50;;;4.20;;
4839;SDS011;2434;48.486;7.964;2024-03-06T00:24:05;7.27;;;3.60;;
4839;SDS011;2434;48.486;7.964;2024-03-06T00:26:33;8.97;;;3.90;;
4839;SDS011;2434;48.486;7.964;2024-03-06T00:29:01;7.83;;;4.27;;
4839;SDS011;2434;48.486;7.964;2024-03-06T00:31:29;7.37;;;3.83;;
4839;SDS011;2434;48.486;7.964;2024-03-06T00:33:57;4.60;;;3.20;;
4839;SDS011;2434;48.486;7.964;2024-03-06T00:36:26;7.40;;;3.87;;
4839;SDS011;2434;48.486;7.964;2024-03-06T00:38:54;5.00;;;3.60;;
4839;SDS011;2434;48.486;7.964;2024-03-06T00:41:23;10.60;;;3.87;;
4839;SDS011;2434;48.486;7.964;2024-03-06T00:43:51;7.60;;;4.10;;
4839;SDS011;2434;48.486;7.964;2024-03-06T00:46:19;6.70;;;3.50;;
4839;SDS011;2434;48.486;7.964;2024-03-06T00:48:47;6.40;;;3.20;;
4839;SDS011;2434;48.486;7.964;2024-03-06T00:51:15;11.10;;;4.07;;
4839;SDS011;2434;48.486;7.964;2024-03-06T00:53:49;7.63;;;3.73;;
4839;SDS011;2434;48.486;7.964;2024-03-06T00:56:17;6.80;;;4.17;;
4839;SDS011;2434;48.486;7.964;2024-03-06T00:58:47;5.90;;;3.43;;
4839;SDS011;2434;48.486;7.964;2024-03-06T01:01:15;5.20;;;3.50;;
4839;SDS011;2434;48.486;7.964;2024-03-06T01:03:43;7.00;;;3.90;;
4839;SDS011;2434;48.486;7.964;2024-03-06T01:06:11;8.17;;;5.10;;
4839;SDS011;2434;48.486;7.964;2024-03-06T01:08:40;8.77;;;4.97;;
4839;SDS011;2434;48.486;7.964;2024-03-06T01:11:08;8.40;;;4.87;;
4839;SDS011;2434;48.486;7.964;2024-03-06T01:13:40;8.50;;;4.93;;
4839;SDS011;2434;48.486;7.964;2024-03-06T01:16:10;6.90;;;4.63;;
4839;SDS011;2434;48.486;7.964;2024-03-06T01:18:38;9.83;;;4.83;;
4839;SDS011;2434;48.486;7.964;2024-03-06T01:21:06;9.20;;;4.50;;
4839;SDS011;2434;48.486;7.964;2024-03-06T01:23:34;7.00;;;4.00;;
4839;SDS011;2434;48.486;7.964;2024-03-06T01:26:02;6.23;;;4.40;;
4839;SDS011;2434;48.486;7.964;2024-03-06T01:28:31;5.17;;;3.60;;
4839;SDS011;2434;48.486;7.964;2024-03-06T01:31:00;5.70;;;3.63;;
4839;SDS011;2434;48.486;7.964;2024-03-06T01:33:29;4.87;;;3.20;;
4839;SDS011;2434;48.486;7.964;2024-03-06T01:35:57;5.53;;;3.40;;
4839;SDS011;2434;48.486;7.964;2024-03-06T01:38:25;5.63;;;3.17;;
4839;SDS011;2434;48.486;7.964;2024-03-06T01:40:53;6.60;;;3.20;;
4839;SDS011;2434;48.486;7.964;2024-03-06T01:43:21;7.10;;;3.70;;
4839;SDS011;2434;48.486;7.964;2024-03-06T01:45:51;5.37;;;3.17;;
4839;SDS011;2434;48.486;7.964;2024-03-06T01:48:21;5.77;;;3.27;;
4839;SDS011;2434;48.486;7.964;2024-03-06T01:50:53;4.00;;;2.53;;
4839;SDS011;2434;48.486;7.964;2024-03-06T01:53:23;6.47;;;2.70;;
4839;SDS011;2434;48.486;7.964;2024-03-06T01:55:52;5.60;;;2.60;;
4839;SDS011;2434;48.486;7.964;2024-03-06T01:58:20;5.60;;;2.83;;
4839;SDS011;2434;48.486;7.964;2024-03-06T02:00:49;5.17;;;3.00;;
4839;SDS011;2434;48.486;7.964;2024-03-06T02:03:17;5.60;;;3.00;;
4839;SDS011;2434;48.486;7.964;2024-03-06T02:05:46;5.67;;;3.10;;
4839;SDS011;2434;48.486;7.964;2024-03-06T02:08:16;7.97;;;3.10;;
4839;SDS011;2434;48.486;7.964;2024-03-06T02:10:45;4.53;;;3.10;;
4839;SDS011;2434;48.486;7.964;2024-03-06T02:13:14;6.67;;;3.30;;
4839;SDS011;2434;48.486;7.964;2024-03-06T02:15:43;4.73;;;3.40;;
4839;SDS011;2434;48.486;7.964;2024-03-06T02:18:12;5.47;;;3.40;;
4839;SDS011;2434;48.486;7.964;2024-03-06T02:20:42;5.23;;;3.20;;
4839;SDS011;2434;48.486;7.964;2024-03-06T02:23:11;6.37;;;4.07;;
4839;SDS011;2434;48.486;7.964;2024-03-06T02:25:40;5.97;;;3.60;;
4839;SDS011;2434;48.486;7.964;2024-03-06T02:28:09;5.30;;;3.10;;
4839;SDS011;2434;48.486;7.964;2024-03-06T02:30:37;4.30;;;3.03;;
4839;SDS011;2434;48.486;7.964;2024-03-06T02:33:05;4.90;;;3.30;;
4839;SDS011;2434;48.486;7.964;2024-03-06T02:35:34;4.97;;;3.30;;
4839;SDS011;2434;48.486;7.964;2024-03-06T02:38:04;4.80;;;3.10;;
4839;SDS011;2434;48.486;7.964;2024-03-06T02:40:32;4.87;;;3.10;;
4839;SDS011;2434;48.486;7.964;2024-03-06T02:43:00;4.23;;;3.10;;
4839;SDS011;2434;48.486;7.964;2024-03-06T02:45:28;6.07;;;3.67;;
4839;SDS011;2434;48.486;7.964;2024-03-06T02:47:57;5.20;;;3.10;;
4839;SDS011;2434;48.486;7.964;2024-03-06T02:50:25;5.50;;;3.20;;
4839;SDS011;2434;48.486;7.964;2024-03-06T02:52:53;5.10;;;3.10;;
4839;SDS011;2434;48.486;7.964;2024-03-06T02:55:23;7.50;;;3.70;;
4839;SDS011;2434;48.486;7.964;2024-03-06T02:57:51;4.30;;;3.10;;
4839;SDS011;2434;48.486;7.964;2024-03-06T03:00:19;6.90;;;3.10;;
4839;SDS011;2434;48.486;7.964;2024-03-06T03:02:48;6.90;;;3.80;;
4839;SDS011;2434;48.486;7.964;2024-03-06T03:05:16;7.70;;;3.20;;
4839;SDS011;2434;48.486;7.964;2024-03-06T03:07:44;5.50;;;3.73;;
4839;SDS011;2434;48.486;7.964;2024-03-06T03:10:12;7.23;;;3.10;;
4839;SDS011;2434;48.486;7.964;2024-03-06T03:12:42;6.83;;;3.87;;
4839;SDS011;2434;48.486;7.964;2024-03-06T03:15:10;5.40;;;3.20;;
4839;SDS011;2434;48.486;7.964;2024-03-06T03:17:38;4.90;;;2.93;;
4839;SDS011;2434;48.486;7.964;2024-03-06T03:20:06;4.30;;;2.60;;
4839;SDS011;2434;48.486;7.964;2024-03-06T03:22:37;4.10;;;2.53;;
4839;SDS011;2434;48.486;7.964;2024-03-06T03:25:07;4.70;;;3.10;;
4839;SDS011;2434;48.486;7.964;2024-03-06T03:27:36;5.50;;;2.97;;
4839;SDS011;2434;48.486;7.964;2024-03-06T03:30:06;6.77;;;3.40;;
4839;SDS011;2434;48.486;7.964;2024-03-06T03:32:36;5.37;;;2.90;;
4839;SDS011;2434;48.486;7.964;2024-03-06T03:35:04;6.67;;;4.10;;
4839;SDS011;2434;48.486;7.964;2024-03-06T03:37:33;6.50;;;4.40;;
4839;SDS011;2434;48.486;7.964;2024-03-06T03:40:01;6.37;;;3.43;;
4839;SDS011;2434;48.486;7.964;2024-03-06T03:42:30;7.23;;;4.03;;
4839;SDS011;2434;48.486;7.964;2024-03-06T03:44:58;7.20;;;4.17;;
4839;SDS011;2434;48.486;7.964;2024-03-06T03:47:27;5.50;;;3.83;;
4839;SDS011;2434;48.486;7.964;2024-03-06T03:49:55;7.43;;;3.90;;
4839;SDS011;2434;48.486;7.964;2024-03-06T03:52:35;4.63;;;3.27;;
4839;SDS011;2434;48.486;7.964;2024-03-06T03:55:08;7.27;;;4.10;;
4839;SDS011;2434;48.486;7.964;2024-03-06T03:57:36;5.13;;;3.50;;
4839;SDS011;2434;48.486;7.964;2024-03-06T04:00:04;4.63;;;2.90;;
4839;SDS011;2434;48.486;7.964;2024-03-06T04:02:39;5.77;;;3.60;;
4839;SDS011;2434;48.486;7.964;2024-03-06T04:05:08;4.13;;;3.00;;
4839;SDS011;2434;48.486;7.964;2024-03-06T04:07:37;4.70;;;2.87;;
4839;SDS011;2434;48.486;7.964;2024-03-06T04:10:06;5.70;;;2.87;;
4839;SDS011;2434;48.486;7.964;2024-03-06T04:12:37;8.87;;;3.00;;
4839;SDS011;2434;48.486;7.964;2024-03-06T04:15:06;3.07;;;2.10;;
4839;SDS011;2434;48.486;7.964;2024-03-06T04:17:35;3.80;;;2.20;;
4839;SDS011;2434;48.486;7.964;2024-03-06T04:20:05;4.87;;;2.27;;
4839;SDS011;2434;48.486;7.964;2024-03-06T04:22:34;4.80;;;2.30;;
4839;SDS011;2434;48.486;7.964;2024-03-06T04:25:02;5.73;;;2.37;;
4839;SDS011;2434;48.486;7.964;2024-03-06T04:27:31;5.77;;;2.13;;
4839;SDS011;2434;48.486;7.964;2024-03-06T04:29:59;8.97;;;2.67;;
4839;SDS011;2434;48.486;7.964;2024-03-06T04:32:27;5.20;;;2.70;;
4839;SDS011;2434;48.486;7.964;2024-03-06T04:34:55;3.93;;;2.33;;
4839;SDS011;2434;48.486;7.964;2024-03-06T04:37:25;4.00;;;2.50;;
4839;SDS011;2434;48.486;7.964;2024-03-06T04:39:56;4.63;;;2.50;;
4839;SDS011;2434;48.486;7.964;2024-03-06T04:42:24;3.27;;;2.17;;
4839;SDS011;2434;48.486;7.964;2024-03-06T04:44:52;4.97;;;2.27;;
4839;SDS011;2434;48.486;7.964;2024-03-06T04:47:20;3.00;;;2.00;;
4839;SDS011;2434;48.486;7.964;2024-03-06T04:49:48;4.40;;;2.57;;
4839;SDS011;2434;48.486;7.964;2024-03-06T04:52:16;5.53;;;2.60;;
4839;SDS011;2434;48.486;7.964;2024-03-06T04:54:46;3.33;;;2.30;;
4839;SDS011;2434;48.486;7.964;2024-03-06T04:57:13;4.17;;;2.80;;
4839;SDS011;2434;48.486;7.964;2024-03-06T04:59:41;4.67;;;3.20;;
4839;SDS011;2434;48.486;7.964;2024-03-06T05:02:09;4.97;;;2.77;;
4839;SDS011;2434;48.486;7.964;2024-03-06T05:04:38;4.43;;;2.73;;
4839;SDS011;2434;48.486;7.964;2024-03-06T05:07:24;5.70;;;3.20;;
4839;SDS011;2434;48.486;7.964;2024-03-06T05:10:11;6.40;;;3.40;;
4839;SDS011;2434;48.486;7.964;2024-03-06T05:12:56;8.33;;;3.77;;
4839;SDS011;2434;48.486;7.964;2024-03-06T05:15:42;9.57;;;3.83;;
4839;SDS011;2434;48.486;7.964;2024-03-06T05:18:28;6.00;;;3.90;;
4839;SDS011;2434;48.486;7.964;2024-03-06T05:21:13;6.80;;;3.77;;
4839;SDS011;2434;48.486;7.964;2024-03-06T05:23:59;8.30;;;3.40;;
4839;SDS011;2434;48.486;7.964;2024-03-06T05:26:45;6.50;;;3.63;;
4839;SDS011;2434;48.486;7.964;2024-03-06T05:29:31;4.90;;;3.80;;
4839;SDS011;2434;48.486;7.964;2024-03-06T05:32:17;5.07;;;3.33;;
4839;SDS011;2434;48.486;7.964;2024-03-06T05:35:03;4.60;;;3.07;;
4839;SDS011;2434;48.486;7.964;2024-03-06T05:37:49;6.33;;;3.70;;
4839;SDS011;2434;48.486;7.964;2024-03-06T05:40:34;7.23;;;3.70;;
4839;SDS011;2434;48.486;7.964;2024-03-06T05:43:22;4.93;;;3.20;;
4839;SDS011;2434;48.486;7.964;2024-03-06T05:46:08;6.23;;;4.17;;
4839;SDS011;2434;48.486;7.964;2024-03-06T05:48:53;4.87;;;3.30;;
4839;SDS011;2434;48.486;7.964;2024-03-06T05:51:39;5.57;;;3.60;;
4839;SDS011;2434;48.486;7.964;2024-03-06T05:54:24;8.27;;;4.30;;
4839;SDS011;2434;48.486;7.964;2024-03-06T05:57:11;5.93;;;3.70;;
4839;SDS011;2434;48.486;7.964;2024-03-06T05:59:58;6.80;;;4.30;;
4839;SDS011;2434;48.486;7.964;2024-03-06T06:02:26;8.20;;;4.47;;
4839;SDS011;2434;48.486;7.964;2024-03-06T06:04:54;6.67;;;4.03;;
4839;SDS011;2434;48.486;7.964;2024-03-06T06:07:41;6.10;;;4.30;;
4839;SDS011;2434;48.486;7.964;2024-03-06T06:10:09;8.33;;;4.77;;
4839;SDS011;2434;48.486;7.964;2024-03-06T06:12:37;10.80;;;5.97;;
4839;SDS011;2434;48.486;7.964;2024-03-06T06:15:07;9.50;;;5.00;;
4839;SDS011;2434;48.486;7.964;2024-03-06T06:17:36;15.23;;;4.80;;
4839;SDS011;2434;48.486;7.964;2024-03-06T06:20:06;14.00;;;7.53;;
4839;SDS011;2434;48.486;7.964;2024-03-06T06:22:36;18.93;;;9.50;;
4839;SDS011;2434;48.486;7.964;2024-03-06T06:25:04;11.97;;;6.63;;
4839;SDS011;2434;48.486;7.964;2024-03-06T06:27:33;9.30;;;5.50;;
4839;SDS011;2434;48.486;7.964;2024-03-06T06:30:02;9.50;;;5.10;;
4839;SDS011;2434;48.486;7.964;2024-03-06T06:32:34;9.00;;;4.23;;
4839;SDS011;2434;48.486;7.964;2024-03-06T06:35:02;10.07;;;3.80;;
4839;SDS011;2434;48.486;7.964;2024-03-06T06:37:31;7.70;;;4.10;;
4839;SDS011;2434;48.486;7.964;2024-03-06T06:40:00;6.83;;;3.70;;
4839;SDS011;2434;48.486;7.964;2024-03-06T06:42:33;8.20;;;3.63;;
4839;SDS011;2434;48.486;7.964;2024-03-06T06:45:02;7.27;;;3.67;;
4839;SDS011;2434;48.486;7.964;2024-03-06T06:47:30;5.60;;;3.40;;
4839;SDS011;2434;48.486;7.964;2024-03-06T06:49:59;6.80;;;3.77;;
4839;SDS011;2434;48.486;7.964;2024-03-06T06:52:32;5.83;;;3.70;;
4839;SDS011;2434;48.486;7.964;2024-03-06T06:55:01;6.63;;;3.67;;
4839;SDS011;2434;48.486;7.964;2024-03-06T06:57:30;6.80;;;4.10;;
4839;SDS011;2434;48.486;7.964;2024-03-06T06:59:59;5.70;;;3.90;;
4839;SDS011;2434;48.486;7.964;2024-03-06T07:02:29;7.07;;;4.30;;
4839;SDS011;2434;48.486;7.964;2024-03-06T07:04:57;5.90;;;4.03;;
4839;SDS011;2434;48.486;7.964;2024-03-06T07:07:27;9.73;;;4.60;;
4839;SDS011;2434;48.486;7.964;2024-03-06T07:09:55;7.30;;;4.93;;
4839;SDS011;2434;48.486;7.964;2024-03-06T07:12:24;9.07;;;4.60;;
4839;SDS011;2434;48.486;7.964;2024-03-06T07:14:52;9.23;;;4.10;;
4839;SDS011;2434;48.486;7.964;2024-03-06T07:17:20;7.90;;;4.20;;
4839;SDS011;2434;48.486;7.964;2024-03-06T07:19:48;7.40;;;4.53;;
4839;SDS011;2434;48.486;7.964;2024-03-06T07:22:18;7.40;;;4.40;;
4839;SDS011;2434;48.486;7.964;2024-03-06T07:24:46;11.90;;;4.43;;
4839;SDS011;2434;48.486;7.964;2024-03-06T07:27:14;7.37;;;4.43;;
4839;SDS011;2434;48.486;7.964;2024-03-06T07:29:42;10.57;;;4.30;;
4839;SDS011;2434;48.486;7.964;2024-03-06T07:32:10;8.30;;;5.13;;
4839;SDS011;2434;48.486;7.964;2024-03-06T07:34:38;10.13;;;4.33;;
4839;SDS011;2434;48.486;7.964;2024-03-06T07:37:06;7.00;;;3.73;;
4839;SDS011;2434;48.486;7.964;2024-03-06T07:39:35;6.07;;;4.37;;
4839;SDS011;2434;48.486;7.964;2024-03-06T07:42:04;7.20;;;4.43;;
4839;SDS011;2434;48.486;7.964;2024-03-06T07:44:32;9.13;;;4.50;;
4839;SDS011;2434;48.486;7.964;2024-03-06T07:47:01;8.30;;;5.03;;
4839;SDS011;2434;48.486;7.964;2024-03-06T07:49:30;8.90;;;4.00;;
4839;SDS011;2434;48.486;7.964;2024-03-06T07:51:58;7.90;;;4.43;;
4839;SDS011;2434;48.486;7.964;2024-03-06T07:54:26;9.20;;;4.50;;
4839;SDS011;2434;48.486;7.964;2024-03-06T07:56:55;10.33;;;4.97;;
4839;SDS011;2434;48.486;7.964;2024-03-06T07:59:23;9.50;;;4.50;;
4839;SDS011;2434;48.486;7.964;2024-03-06T08:01:51;10.77;;;4.97;;
4839;SDS011;2434;48.486;7.964;2024-03-06T08:04:21;9.83;;;5.00;;
4839;SDS011;2434;48.486;7.964;2024-03-06T08:06:49;7.90;;;4.07;;
4839;SDS011;2434;48.486;7.964;2024-03-06T08:09:17;8.33;;;4.33;;
4839;SDS011;2434;48.486;7.964;2024-03-06T08:11:46;8.50;;;4.70;;
4839;SDS011;2434;48.486;7.964;2024-03-06T08:14:16;8.27;;;4.77;;
4839;SDS011;2434;48.486;7.964;2024-03-06T08:16:44;8.27;;;4.03;;
4839;SDS011;2434;48.486;7.964;2024-03-06T08:19:13;8.60;;;4.70;;
4839;SDS011;2434;48.486;7.964;2024-03-06T08:21:41;8.53;;;5.17;;
4839;SDS011;2434;48.486;7.964;2024-03-06T08:24:09;7.60;;;4.40;;
4839;SDS011;2434;48.486;7.964;2024-03-06T08:26:37;7.03;;;4.13;;
4839;SDS011;2434;48.486;7.964;2024-03-06T08:29:06;13.20;;;5.03;;
4839;SDS011;2434;48.486;7.964;2024-03-06T08:31:35;7.50;;;4.17;;
4839;SDS011;2434;48.486;7.964;2024-03-06T08:34:03;7.73;;;4.10;;
4839;SDS011;2434;48.486;7.964;2024-03-06T08:36:31;8.90;;;5.10;;
4839;SDS011;2434;48.486;7.964;2024-03-06T08:38:59;7.03;;;4.50;;
4839;SDS011;2434;48.486;7.964;2024-03-06T08:41:27;8.53;;;4.83;;
4839;SDS011;2434;48.486;7.964;2024-03-06T08:43:55;8.67;;;4.60;;
4839;SDS011;2434;48.486;7.964;2024-03-06T08:46:23;10.23;;;4.47;;
4839;SDS011;2434;48.486;7.964;2024-03-06T08:48:53;7.20;;;4.97;;
4839;SDS011;2434;48.486;7.964;2024-03-06T08:51:21;13.83;;;5.60;;
4839;SDS011;2434;48.486;7.964;2024-03-06T08:53:49;9.57;;;4.90;;
4839;SDS011;2434;48.486;7.964;2024-03-06T08:56:17;9.73;;;4.80;;
4839;SDS011;2434;48.486;7.964;2024-03-06T08:58:45;7.73;;;5.13;;
4839;SDS011;2434;48.486;7.964;2024-03-06T09:01:13;14.60;;;5.70;;
4839;SDS011;2434;48.486;7.964;2024-03-06T09:03:41;7.60;;;4.47;;
4839;SDS011;2434;48.486;7.964;2024-03-06T09:06:11;8.83;;;5.33;;
4839;SDS011;2434;48.486;7.964;2024-03-06T09:08:39;8.47;;;4.73;;
4839;SDS011;2434;48.486;7.964;2024-03-06T09:11:07;8.07;;;4.70;;
4839;SDS011;2434;48.486;7.964;2024-03-06T09:13:35;6.80;;;5.00;;
4839;SDS011;2434;48.486;7.964;2024-03-06T09:16:03;8.00;;;5.20;;
4839;SDS011;2434;48.486;7.964;2024-03-06T09:18:32;8.33;;;4.90;;
4839;SDS011;2434;48.486;7.964;2024-03-06T09:21:00;7.73;;;4.80;;
4839;SDS011;2434;48.486;7.964;2024-03-06T09:23:30;9.57;;;6.17;;
4839;SDS011;2434;48.486;7.964;2024-03-06T09:25:58;8.40;;;5.43;;
4839;SDS011;2434;48.486;7.964;2024-03-06T09:28:27;12.37;;;6.60;;
4839;SDS011;2434;48.486;7.964;2024-03-06T09:30:55;10.60;;;6.33;;
4839;SDS011;2434;48.486;7.964;2024-03-06T09:33:23;14.50;;;6.30;;
4839;SDS011;2434;48.486;7.964;2024-03-06T09:35:51;7.90;;;5.80;;
4839;SDS011;2434;48.486;7.964;2024-03-06T09:38:19;9.10;;;5.70;;
4839;SDS011;2434;48.486;7.964;2024-03-06T09:40:49;11.13;;;5.40;;
4839;SDS011;2434;48.486;7.964;2024-03-06T09:43:17;10.23;;;5.30;;
4839;SDS011;2434;48.486;7.964;2024-03-06T09:45:45;13.73;;;6.37;;
4839;SDS011;2434;48.486;7.964;2024-03-06T09:48:16;12.80;;;6.30;;
4839;SDS011;2434;48.486;7.964;2024-03-06T09:50:48;12.27;;;6.90;;
4839;SDS011;2434;48.486;7.964;2024-03-06T09:53:18;12.80;;;6.10;;
4839;SDS011;2434;48.486;7.964;2024-03-06T09:55:50;14.20;;;5.70;;
4839;SDS011;2434;48.486;7.964;2024-03-06T09:58:18;11.63;;;6.87;;
4839;SDS011;2434;48.486;7.964;2024-03-06T10:00:46;8.07;;;5.37;;
4839;SDS011;2434;48.486;7.964;2024-03-06T10:03:17;17.80;;;6.73;;
4839;SDS011;2434;48.486;7.964;2024-03-06T10:05:46;10.53;;;6.40;;
4839;SDS011;2434;48.486;7.964;2024-03-06T10:08:14;11.93;;;6.80;;
4839;SDS011;2434;48.486;7.964;2024-03-06T10:10:43;15.20;;;6.67;;
4839;SDS011;2434;48.486;7.964;2024-03-06T10:13:14;7.90;;;5.80;;
4839;SDS011;2434;48.486;7.964;2024-03-06T10:15:48;10.67;;;7.27;;
4839;SDS011;2434;48.486;7.964;2024-03-06T10:18:26;11.53;;;6.47;;
4839;SDS011;2434;48.486;7.964;2024-03-06T10:20:55;8.83;;;6.23;;
4839;SDS011;2434;48.486;7.964;2024-03-06T10:23:23;16.90;;;7.00;;
4839;SDS011;2434;48.486;7.964;2024-03-06T10:25:51;9.90;;;7.10;;
4839;SDS011;2434;48.486;7.964;2024-03-06T10:28:21;12.63;;;7.53;;
4839;SDS011;2434;48.486;7.964;2024-03-06T10:30:51;9.63;;;7.07;;
4839;SDS011;2434;48.486;7.964;2024-03-06T10:33:19;10.33;;;6.90;;
4839;SDS011;2434;48.486;7.964;2024-03-06T10:35:47;13.00;;;7.63;;
4839;SDS011;2434;48.486;7.964;2024-03-06T10:38:16;14.67;;;7.00;;
4839;SDS011;2434;48.486;7.964;2024-03-06T10:40:47;9.60;;;6.50;;
4839;SDS011;2434;48.486;7.964;2024-03-06T10:43:18;15.57;;;8.67;;
4839;SDS011;2434;48.486;7.964;2024-03-06T10:45:50;12.50;;;7.30;;
4839;SDS011;2434;48.486;7.964;2024-03-06T10:48:27;16.17;;;7.70;;
4839;SDS011;2434;48.486;7.964;2024-03-06T10:50:56;10.00;;;6.60;;
4839;SDS011;2434;48.486;7.964;2024-03-06T10:53:26;13.47;;;6.77;;
4839;SDS011;2434;48.486;7.964;2024-03-06T10:55:57;9.10;;;6.70;;
4839;SDS011;2434;48.486;7.964;2024-03-06T10:58:27;12.00;;;6.97;;
4839;SDS011;2434;48.486;7.964;2024-03-06T11:00:57;10.30;;;6.60;;
4839;SDS011;2434;48.486;7.964;2024-03-06T11:03:26;9.73;;;6.03;;
4839;SDS011;2434;48.486;7.964;2024-03-06T11:05:57;12.60;;;5.57;;
4839;SDS011;2434;48.486;7.964;2024-03-06T11:08:30;12.23;;;6.27;;
4839;SDS011;2434;48.486;7.964;2024-03-06T11:13:50;8.60;;;6.23;;
4839;SDS011;2434;48.486;7.964;2024-03-06T11:16:27;10.80;;;7.40;;
4839;SDS011;2434;48.486;7.964;2024-03-06T11:19:05;9.17;;;6.60;;
4839;SDS011;2434;48.486;7.964;2024-03-06T11:21:35;7.93;;;5.90;;
4839;SDS011;2434;48.486;7.964;2024-03-06T11:24:14;8.80;;;6.67;;
4839;SDS011;2434;48.486;7.964;2024-03-06T11:26:45;13.80;;;7.00;;
4839;SDS011;2434;48.486;7.964;2024-03-06T11:29:19;9.77;;;6.20;;
4839;SDS011;2434;48.486;7.964;2024-03-06T11:32:03;8.60;;;6.27;;
4839;SDS011;2434;48.486;7.964;2024-03-06T11:34:37;16.17;;;6.83;;
4839;SDS011;2434;48.486;7.964;2024-03-06T11:37:05;14.93;;;6.23;;
4839;SDS011;2434;48.486;7.964;2024-03-06T11:39:36;10.30;;;8.20;;
4839;SDS011;2434;48.486;7.964;2024-03-06T11:42:06;13.37;;;7.40;;
4839;SDS011;2434;48.486;7.964;2024-03-06T11:44:36;11.67;;;7.70;;
4839;SDS011;2434;48.486;7.964;2024-03-06T11:47:20;11.47;;;7.00;;
4839;SDS011;2434;48.486;7.964;2024-03-06T11:49:48;11.00;;;6.43;;
4839;SDS011;2434;48.486;7.964;2024-03-06T11:52:17;10.33;;;7.37;;
4839;SDS011;2434;48.486;7.964;2024-03-06T11:54:45;13.33;;;8.00;;
4839;SDS011;2434;48.486;7.964;2024-03-06T11:57:13;13.07;;;8.00;;
4839;SDS011;2434;48.486;7.964;2024-03-06T11:59:43;10.90;;;7.53;;
4839;SDS011;2434;48.486;7.964;2024-03-06T12:02:12;9.30;;;6.30;;
4839;SDS011;2434;48.486;7.964;2024-03-06T12:04:41;9.13;;;6.43;;
4839;SDS011;2434;48.486;7.964;2024-03-06T12:07:09;14.57;;;7.00;;
4839;SDS011;2434;48.486;7.964;2024-03-06T12:09:38;11.20;;;6.60;;
4839;SDS011;2434;48.486;7.964;2024-03-06T12:12:09;10.07;;;6.70;;
4839;SDS011;2434;48.486;7.964;2024-03-06T12:14:39;12.00;;;7.57;;
4839;SDS011;2434;48.486;7.964;2024-03-06T12:17:13;10.13;;;7.63;;
4839;SDS011;2434;48.486;7.964;2024-03-06T12:19:43;11.60;;;7.57;;
4839;SDS011;2434;48.486;7.964;2024-03-06T12:22:11;9.57;;;7.63;;
4839;SDS011;2434;48.486;7.964;2024-03-06T12:24:41;9.33;;;7.40;;
4839;SDS011;2434;48.486;7.964;2024-03-06T12:27:09;11.37;;;7.60;;
4839;SDS011;2434;48.486;7.964;2024-03-06T12:29:39;8.60;;;6.50;;
4839;SDS011;2434;48.486;7.964;2024-03-06T12:32:16;11.37;;;6.93;;
4839;SDS011;2434;48.486;7.964;2024-03-06T12:34:55;7.97;;;6.40;;
4839;SDS011;2434;48.486;7.964;2024-03-06T12:37:28;10.67;;;6.70;;
4839;SDS011;2434;48.486;7.964;2024-03-06T12:40:02;9.87;;;7.13;;
4839;SDS011;2434;48.486;7.964;2024-03-06T12:42:31;12.40;;;7.57;;
4839;SDS011;2434;48.486;7.964;2024-03-06T12:45:00;7.30;;;5.77;;
4839;SDS011;2434;48.486;7.964;2024-03-06T12:47:31;13.13;;;7.80;;
4839;SDS011;2434;48.486;7.964;2024-03-06T12:49:59;12.27;;;7.27;;
4839;SDS011;2434;48.486;7.964;2024-03-06T12:52:27;8.03;;;6.53;;
4839;SDS011;2434;48.486;7.964;2024-03-06T12:54:55;13.60;;;8.63;;
4839;SDS011;2434;48.486;7.964;2024-03-06T12:57:23;10.40;;;6.80;;
4839;SDS011;2434;48.486;7.964;2024-03-06T12:59:51;10.33;;;6.57;;
4839;SDS011;2434;48.486;7.964;2024-03-06T13:02:19;9.90;;;6.83;;
4839;SDS011;2434;48.486;7.964;2024-03-06T13:04:48;9.50;;;6.93;;
4839;SDS011;2434;48.486;7.964;2024-03-06T13:07:16;9.80;;;6.80;;
4839;SDS011;2434;48.486;7.964;2024-03-06T13:09:45;11.07;;;6.40;;
4839;SDS011;2434;48.486;7.964;2024-03-06T13:12:13;10.70;;;7.20;;
4839;SDS011;2434;48.486;7.964;2024-03-06T13:14:41;11.50;;;7.10;;
4839;SDS011;2434;48.486;7.964;2024-03-06T13:17:10;8.40;;;6.60;;
4839;SDS011;2434;48.486;7.964;2024-03-06T13:19:38;9.87;;;6.37;;
4839;SDS011;2434;48.486;7.964;2024-03-06T13:22:07;9.70;;;6.20;;
4839;SDS011;2434;48.486;7.964;2024-03-06T13:24:35;9.80;;;6.67;;
4839;SDS011;2434;48.486;7.964;2024-03-06T13:27:09;9.00;;;6.80;;
4839;SDS011;2434;48.486;7.964;2024-03-06T13:29:37;12.93;;;7.50;;
4839;SDS011;2434;48.486;7.964;2024-03-06T13:32:06;11.67;;;7.83;;
4839;SDS011;2434;48.486;7.964;2024-03-06T13:34:34;11.27;;;7.33;;
4839;SDS011;2434;48.486;7.964;2024-03-06T13:37:02;11.00;;;8.27;;
4839;SDS011;2434;48.486;7.964;2024-03-06T13:39:34;9.10;;;6.40;;
4839;SDS011;2434;48.486;7.964;2024-03-06T13:42:02;12.53;;;7.17;;
4839;SDS011;2434;48.486;7.964;2024-03-06T13:44:30;18.13;;;8.03;;
4839;SDS011;2434;48.486;7.964;2024-03-06T13:46:58;12.17;;;8.70;;
4839;SDS011;2434;48.486;7.964;2024-03-06T13:49:36;8.00;;;6.40;;
4839;SDS011;2434;48.486;7.964;2024-03-06T13:52:06;17.13;;;8.67;;
4839;SDS011;2434;48.486;7.964;2024-03-06T13:54:38;10.00;;;6.97;;
4839;SDS011;2434;48.486;7.964;2024-03-06T13:57:07;10.53;;;7.23;;
4839;SDS011;2434;48.486;7.964;2024-03-06T13:59:35;16.20;;;8.80;;
4839;SDS011;2434;48.486;7.964;2024-03-06T14:02:06;13.80;;;7.70;;
4839;SDS011;2434;48.486;7.964;2024-03-06T14:04:35;12.87;;;7.10;;
4839;SDS011;2434;48.486;7.964;2024-03-06T14:07:04;8.20;;;6.10;;
4839;SDS011;2434;48.486;7.964;2024-03-06T14:09:32;10.17;;;7.53;;
4839;SDS011;2434;48.486;7.964;2024-03-06T14:12:02;13.17;;;7.60;;
4839;SDS011;2434;48.486;7.964;2024-03-06T14:14:30;9.13;;;6.80;;
4839;SDS011;2434;48.486;7.964;2024-03-06T14:16:58;13.13;;;7.23;;
4839;SDS011;2434;48.486;7.964;2024-03-06T14:19:26;11.20;;;7.17;;
4839;SDS011;2434;48.486;7.964;2024-03-06T14:21:55;9.57;;;6.63;;
4839;SDS011;2434;48.486;7.964;2024-03-06T14:24:29;7.90;;;6.10;;
4839;SDS011;2434;48.486;7.964;2024-03-06T14:26:58;9.00;;;6.53;;
4839;SDS011;2434;48.486;7.964;2024-03-06T14:29:28;13.20;;;7.90;;
4839;SDS011;2434;48.486;7.964;2024-03-06T14:31:57;9.50;;;7.23;;
4839;SDS011;2434;48.486;7.964;2024-03-06T14:34:25;7.97;;;6.83;;
4839;SDS011;2434;48.486;7.964;2024-03-06T14:36:54;7.93;;;6.10;;
4839;SDS011;2434;48.486;7.964;2024-03-06T14:39:23;12.20;;;6.20;;
4839;SDS011;2434;48.486;7.964;2024-03-06T14:41:52;11.00;;;5.90;;
4839;SDS011;2434;48.486;7.964;2024-03-06T14:44:21;10.83;;;6.80;;
4839;SDS011;2434;48.486;7.964;2024-03-06T14:46:52;8.73;;;5.80;;
4839;SDS011;2434;48.486;7.964;2024-03-06T14:49:21;14.90;;;5.90;;
4839;SDS011;2434;48.486;7.964;2024-03-06T14:51:49;14.90;;;7.50;;
4839;SDS011;2434;48.486;7.964;2024-03-06T14:54:18;11.50;;;6.30;;
4839;SDS011;2434;48.486;7.964;2024-03-06T14:56:46;12.77;;;5.80;;
4839;SDS011;2434;48.486;7.964;2024-03-06T14:59:14;12.77;;;6.00;;
4839;SDS011;2434;48.486;7.964;2024-03-06T15:01:42;10.53;;;6.40;;
4839;SDS011;2434;48.486;7.964;2024-03-06T15:04:12;9.10;;;6.43;;
4839;SDS011;2434;48.486;7.964;2024-03-06T15:06:40;11.10;;;5.67;;
4839;SDS011;2434;48.486;7.964;2024-03-06T15:09:08;11.03;;;5.43;;
4839;SDS011;2434;48.486;7.964;2024-03-06T15:11:38;7.00;;;5.73;;
4839;SDS011;2434;48.486;7.964;2024-03-06T15:14:07;8.00;;;6.30;;
4839;SDS011;2434;48.486;7.964;2024-03-06T15:16:36;10.87;;;8.00;;
4839;SDS011;2434;48.486;7.964;2024-03-06T15:19:06;12.90;;;8.10;;
4839;SDS011;2434;48.486;7.964;2024-03-06T15:21:35;12.03;;;8.13;;
4839;SDS011;2434;48.486;7.964;2024-03-06T15:24:04;11.77;;;7.20;;
4839;SDS011;2434;48.486;7.964;2024-03-06T15:26:32;10.07;;;7.17;;
4839;SDS011;2434;48.486;7.964;2024-03-06T15:29:02;9.60;;;6.17;;
4839;SDS011;2434;48.486;7.964;2024-03-06T15:31:31;11.70;;;7.00;;